Time;durP1;ratioP1;P1;durP2;ratioP2;P2;SDS_P1;SDS_P2;PMS_P1;PMS_P2;Temp;Humidity;BMP_temperature;BMP_pressure;BME280_temperature;BME280_humidity;BME280_pressure;Samples;Min_cycle;Max_cycle;Signal;HPM_P1;HPM_P2
2022/02/10 00:05:43;;;;;;;2.30;1.10;;;6.30;99.90;;;;;;5079378;28;20198;-64
2022/02/10 00:16:01;;;;;;;1.67;1.30;;;6.20;99.90;;;;;;5078295;28;20642;-64
2022/02/10 00:20:58;;;;;;;1.30;1.07;;;6.10;99.90;;;;;;5079354;28;20194;-63
2022/02/10 00:36:44;;;;;;;1.60;0.97;;;6.10;99.90;;;;;;5064944;28;20635;-64
2022/02/10 00:41:49;;;;;;;1.50;1.10;;;6.00;99.90;;;;;;5081578;28;20198;-64
2022/02/10 00:44:15;;;;;;;1.43;1.10;;;6.00;99.90;;;;;;5079717;28;20705;-63
2022/02/10 00:46:41;;;;;;;1.53;1.10;;;6.00;99.90;;;;;;5083262;28;20582;-64
2022/02/10 00:49:08;;;;;;;3.13;1.03;;;6.00;99.90;;;;;;5083864;28;20266;-64
2022/02/10 00:51:35;;;;;;;1.47;1.10;;;5.90;99.90;;;;;;5079669;28;20226;-64
2022/02/10 00:54:02;;;;;;;2.53;1.10;;;5.90;99.90;;;;;;5077106;28;20642;-64
2022/02/10 00:56:31;;;;;;;1.33;1.13;;;5.90;99.90;;;;;;5064011;28;20251;-64
2022/02/10 00:59:10;;;;;;;5.37;1.10;;;5.80;99.90;;;;;;5074546;28;20249;-64
2022/02/10 01:31:59;;;;;;;1.20;1.10;;;6.00;99.90;;;;;;5078769;28;20209;-65
2022/02/10 01:34:26;;;;;;;1.73;1.20;;;6.00;99.90;;;;;;5085922;28;20197;-64
2022/02/10 01:36:52;;;;;;;2.13;1.20;;;6.00;99.90;;;;;;5085738;28;20372;-63
2022/02/10 01:39:24;;;;;;;2.23;1.07;;;6.00;99.90;;;;;;5084385;28;20229;-64
2022/02/10 02:03:52;;;;;;;1.40;1.10;;;5.70;99.90;;;;;;5080604;28;20182;-66
2022/02/10 02:06:24;;;;;;;2.07;1.10;;;5.80;99.90;;;;;;5065106;28;20213;-64
2022/02/10 02:08:51;;;;;;;1.20;1.10;;;5.80;99.90;;;;;;5085761;28;20198;-67
2022/02/10 02:11:23;;;;;;;3.33;1.10;;;5.80;99.90;;;;;;5073995;28;20285;-63
2022/02/10 02:13:49;;;;;;;1.50;1.00;;;5.80;99.90;;;;;;5065588;28;20215;-63
2022/02/10 02:16:15;;;;;;;2.17;1.03;;;5.80;99.90;;;;;;5073437;28;20190;-64
2022/02/10 02:18:41;;;;;;;2.07;1.20;;;5.80;99.90;;;;;;5084941;28;20603;-64
2022/02/10 02:21:10;;;;;;;4.17;1.20;;;5.80;99.90;;;;;;5085058;28;20654;-64
2022/02/10 02:23:36;;;;;;;1.10;1.00;;;5.80;99.90;;;;;;5085846;28;20182;-66
2022/02/10 02:26:09;;;;;;;1.57;1.03;;;5.80;99.90;;;;;;5069994;28;20714;-65
2022/02/10 02:28:40;;;;;;;2.40;1.10;;;5.80;99.90;;;;;;5071245;28;20194;-64
2022/02/10 02:31:11;;;;;;;2.10;1.17;;;5.80;99.90;;;;;;5083099;28;20185;-64
2022/02/10 02:36:58;;;;;;;5.37;1.23;;;5.80;99.90;;;;;;5072142;28;20197;-63
2022/02/10 03:06:32;;;;;;;1.10;0.87;;;5.50;99.90;;;;;;5077173;28;20187;-63
2022/02/10 03:09:04;;;;;;;4.17;1.30;;;5.50;99.90;;;;;;5065633;28;20186;-64
2022/02/10 03:11:31;;;;;;;1.90;1.03;;;5.50;99.90;;;;;;5065972;28;20194;-63
2022/02/10 03:14:03;;;;;;;4.43;1.40;;;5.60;99.90;;;;;;5069744;28;20657;-65
2022/02/10 03:22:24;;;;;;;3.60;1.10;;;5.60;99.90;;;;;;5065790;28;20182;-65
2022/02/10 04:05:45;;;;;;;4.83;1.00;;;5.60;99.90;;;;;;5072575;28;20190;-65
2022/02/10 04:19:31;;;;;;;1.80;1.20;;;5.60;99.90;;;;;;5064348;28;20210;-65
2022/02/10 04:24:10;;;;;;;2.10;0.80;;;5.70;99.90;;;;;;5082190;28;20267;-64
2022/02/10 04:26:52;;;;;;;4.03;0.80;;;5.70;99.90;;;;;;5069322;28;20191;-64
2022/02/10 04:29:52;;;;;;;2.87;1.00;;;5.70;99.90;;;;;;5079193;28;20197;-65
2022/02/10 04:44:06;;;;;;;3.47;1.10;;;5.60;99.90;;;;;;5069811;28;20207;-64
2022/02/10 04:59:41;;;;;;;3.50;1.00;;;5.60;99.90;;;;;;5070409;28;20214;-64
2022/02/10 05:34:42;;;;;;;2.57;1.00;;;5.90;99.90;;;;;;5083284;28;20773;-64
2022/02/10 05:37:08;;;;;;;2.80;0.90;;;5.90;99.90;;;;;;5081961;28;20198;-65
2022/02/10 05:39:39;;;;;;;8.27;1.20;;;6.00;99.90;;;;;;5081890;28;20218;-65
2022/02/10 05:45:05;;;;;;;1.53;0.70;;;6.00;99.90;;;;;;5069295;28;20190;-63
2022/02/10 05:47:59;;;;;;;10.37;1.23;;;6.00;99.90;;;;;;5076703;28;20564;-66
2022/02/10 05:53:34;;;;;;;2.80;1.00;;;5.90;99.90;;;;;;5084444;28;20217;-65
2022/02/10 05:56:09;;;;;;;3.73;1.00;;;6.00;99.90;;;;;;5082628;28;20385;-66
2022/02/10 06:52:43;;;;;;;1.93;0.80;;;7.30;99.90;;;;;;5085780;28;20189;-64
2022/02/10 06:55:34;;;;;;;3.13;1.03;;;7.30;99.90;;;;;;5080315;28;20247;-63
2022/02/10 07:11:49;;;;;;;1.83;1.10;;;7.70;99.90;;;;;;5069367;28;20510;-65
2022/02/10 07:14:35;;;;;;;2.90;1.00;;;7.80;99.90;;;;;;5067229;28;20194;-65
2022/02/10 07:43:12;;;;;;;3.83;1.10;;;7.80;99.90;;;;;;5084027;28;20201;-65
2022/02/10 07:50:34;;;;;;;5.57;0.87;;;8.50;99.90;;;;;;5064185;28;20186;-67
2022/02/10 07:53:21;;;;;;;2.77;1.00;;;8.60;99.90;;;;;;5080015;28;20190;-64
2022/02/10 08:51:09;;;;;;;0.83;0.40;;;9.80;99.90;;;;;;5078260;28;20190;-67
2022/02/10 09:17:21;;;;;;;2.30;0.73;;;10.20;99.90;;;;;;5086642;28;20190;-64
2022/02/10 09:20:13;;;;;;;5.17;1.20;;;10.30;99.90;;;;;;5061628;28;20996;-64
2022/02/10 09:55:56;;;;;;;1.10;0.80;;;10.80;99.90;;;;;;5075279;28;20189;-65
2022/02/10 09:58:58;;;;;;;1.50;0.70;;;10.90;99.90;;;;;;5079664;28;20214;-65
2022/02/10 10:01:34;;;;;;;1.13;0.77;;;11.00;99.90;;;;;;5081290;28;20190;-64
2022/02/10 10:04:16;;;;;;;1.73;0.70;;;11.00;99.90;;;;;;5075973;28;20296;-64
2022/02/10 10:15:13;;;;;;;1.53;0.63;;;11.40;99.90;;;;;;5077166;28;20281;-64
2022/02/10 10:24:16;;;;;;;2.40;1.30;;;11.50;99.90;;;;;;5078119;28;20197;-66
2022/02/10 10:50:12;;;;;;;4.27;1.10;;;14.40;99.90;;;;;;5073045;28;20181;-64
2022/02/10 10:57:35;;;;;;;2.50;1.30;;;15.90;99.90;;;;;;5069383;28;20688;-65
2022/02/10 14:14:16;;;;;;;1.43;1.27;;;11.90;99.90;;;;;;5088587;28;20182;-62
2022/02/10 14:17:01;;;;;;;5.70;1.87;;;11.80;99.90;;;;;;5089089;28;20550;-63
2022/02/10 14:19:39;;;;;;;4.33;1.87;;;11.80;99.90;;;;;;5088609;28;20216;-64
2022/02/10 14:22:25;;;;;;;3.40;1.50;;;11.80;99.90;;;;;;5088790;28;20185;-63
2022/02/10 14:27:38;;;;;;;3.80;1.63;;;11.70;99.90;;;;;;5087791;28;20181;-63
2022/02/10 14:30:06;;;;;;;4.87;2.00;;;11.70;99.90;;;;;;5087341;28;20871;-62
2022/02/10 14:32:39;;;;;;;2.03;1.60;;;11.70;99.90;;;;;;5082899;28;20607;-62
2022/02/10 14:35:13;;;;;;;2.27;1.60;;;11.60;99.90;;;;;;5066875;28;20666;-63
2022/02/10 15:14:09;;;;;;;5.57;2.37;;;10.80;99.90;;;;;;5065985;28;20183;-63
2022/02/10 15:20:36;;;;;;;3.33;2.00;;;10.60;99.90;;;;;;5075949;28;20267;-65
2022/02/10 16:17:31;;;;;;;2.27;1.50;;;9.70;99.90;;;;;;5087075;28;20178;-63
2022/02/10 16:20:06;;;;;;;2.27;1.40;;;9.60;99.90;;;;;;5084981;28;20214;-63
2022/02/10 16:22:38;;;;;;;3.97;1.70;;;9.60;99.90;;;;;;5086456;28;20174;-66
2022/02/10 16:25:09;;;;;;;3.67;1.50;;;9.60;99.90;;;;;;5068620;28;20188;-61
2022/02/10 16:27:48;;;;;;;3.97;1.70;;;9.60;99.90;;;;;;5085686;28;20185;-64
2022/02/10 16:30:15;;;;;;;3.83;1.80;;;9.60;99.90;;;;;;5086863;28;20649;-63
2022/02/10 16:32:41;;;;;;;5.20;1.70;;;9.60;99.90;;;;;;5085761;28;20224;-66
2022/02/10 16:35:09;;;;;;;5.17;1.60;;;9.60;99.90;;;;;;5084809;28;20296;-65
2022/02/10 16:37:37;;;;;;;4.60;1.57;;;9.50;99.90;;;;;;5085519;28;20197;-65
2022/02/10 16:40:05;;;;;;;3.60;1.60;;;9.50;99.90;;;;;;5085562;28;20209;-63
2022/02/10 16:42:32;;;;;;;2.60;1.63;;;9.40;99.90;;;;;;5086022;28;20181;-64
2022/02/10 16:44:58;;;;;;;6.93;2.00;;;9.40;99.90;;;;;;5068486;28;20199;-62
2022/02/10 16:47:24;;;;;;;2.13;1.50;;;9.30;99.90;;;;;;5085176;28;20182;-63
2022/02/10 16:49:53;;;;;;;1.70;1.40;;;9.30;99.90;;;;;;5084928;28;20244;-61
2022/02/10 16:52:37;;;;;;;3.60;1.80;;;9.30;99.90;;;;;;5084731;28;20186;-63
2022/02/10 16:58:33;;;;;;;3.87;1.87;;;9.10;99.90;;;;;;5084481;28;20650;-62
2022/02/10 17:19:34;;;;;;;7.43;1.90;;;8.80;99.90;;;;;;5079009;28;20218;-63
2022/02/10 17:27:29;;;;;;;4.17;2.60;;;8.70;99.90;;;;;;5086162;28;20178;-62
2022/02/10 17:32:48;;;;;;;5.07;2.43;;;8.50;99.90;;;;;;5085579;28;20231;-64
2022/02/10 17:35:23;;;;;;;5.00;2.27;;;8.50;99.90;;;;;;5064346;28;20194;-64
2022/02/10 17:46:13;;;;;;;5.30;2.27;;;8.30;99.90;;;;;;5088668;28;20881;-66
2022/02/10 17:53:54;;;;;;;3.20;1.83;;;8.10;99.90;;;;;;5089082;28;20185;-64
2022/02/10 17:56:21;;;;;;;3.00;1.90;;;8.20;99.90;;;;;;5089897;28;20171;-65
2022/02/10 17:58:49;;;;;;;3.83;1.80;;;8.30;99.90;;;;;;5088251;28;20818;-62
2022/02/10 18:01:16;;;;;;;4.53;1.70;;;8.20;99.90;;;;;;5089209;28;20202;-63
2022/02/10 18:03:44;;;;;;;3.17;1.53;;;8.30;99.90;;;;;;5088871;28;20703;-64
2022/02/10 18:06:30;;;;;;;5.50;2.30;;;8.40;99.90;;;;;;5070823;28;20776;-63
2022/02/10 18:14:26;;;;;;;2.20;1.80;;;8.30;99.90;;;;;;5087372;28;20174;-65
2022/02/10 18:17:20;;;;;;;2.47;1.80;;;8.30;99.90;;;;;;5089471;28;20196;-65
2022/02/10 18:20:07;;;;;;;3.00;1.77;;;8.30;99.90;;;;;;5086761;28;20256;-65
2022/02/10 18:22:52;;;;;;;3.30;2.37;;;8.30;99.90;;;;;;5088434;28;20186;-64
2022/02/10 18:25:31;;;;;;;3.03;1.90;;;8.30;99.90;;;;;;5087622;28;20201;-64
2022/02/10 18:28:21;;;;;;;2.97;1.80;;;8.10;99.90;;;;;;5087852;28;20705;-63
2022/02/10 18:33:24;;;;;;;3.60;2.07;;;8.00;99.90;;;;;;5088233;28;20675;-67
2022/02/10 19:06:28;;;;;;;4.23;1.50;;;7.80;99.90;;;;;;5086404;28;20182;-64
2022/02/10 19:11:14;;;;;;;4.50;1.60;;;7.80;99.90;;;;;;5088355;28;20243;-64
2022/02/10 19:13:41;;;;;;;3.70;1.80;;;7.90;99.90;;;;;;5087695;28;20181;-66
2022/02/10 19:16:07;;;;;;;2.97;1.47;;;7.90;99.90;;;;;;5086770;28;20291;-66
2022/02/10 19:18:34;;;;;;;2.50;1.50;;;7.80;99.90;;;;;;5088012;28;20218;-64
2022/02/10 19:21:00;;;;;;;5.90;1.90;;;7.80;99.90;;;;;;5087454;28;20273;-64
2022/02/10 19:23:27;;;;;;;2.80;1.70;;;7.80;99.90;;;;;;5087570;28;20905;-66
2022/02/10 19:25:53;;;;;;;3.53;1.93;;;7.80;99.90;;;;;;5086876;28;20178;-65
2022/02/10 19:28:20;;;;;;;2.20;1.77;;;7.70;99.90;;;;;;5081900;28;20266;-64
2022/02/10 19:30:48;;;;;;;9.90;1.70;;;7.70;99.90;;;;;;5088185;28;20174;-64
2022/02/10 19:33:16;;;;;;;2.50;1.63;;;7.60;99.90;;;;;;5085560;28;20396;-64
2022/02/10 19:35:49;;;;;;;2.23;1.60;;;7.60;99.90;;;;;;5087553;28;20209;-65
2022/02/10 19:38:21;;;;;;;4.67;2.03;;;7.60;99.90;;;;;;5087948;28;20258;-63
2022/02/10 19:40:54;;;;;;;3.63;1.90;;;7.50;99.90;;;;;;5087175;28;20182;-63
2022/02/10 19:43:22;;;;;;;1.93;1.57;;;7.50;99.90;;;;;;5068837;28;20353;-62
2022/02/10 19:45:49;;;;;;;3.37;1.73;;;7.50;99.90;;;;;;5087495;28;20646;-64
2022/02/10 19:48:22;;;;;;;2.63;1.40;;;7.50;99.90;;;;;;5088010;28;20189;-64
2022/02/10 19:50:50;;;;;;;3.73;1.60;;;7.40;99.90;;;;;;5067744;28;20186;-62
2022/02/10 19:53:18;;;;;;;3.30;1.70;;;7.40;99.90;;;;;;5087078;28;20271;-64
2022/02/10 19:55:48;;;;;;;2.37;1.53;;;7.40;99.90;;;;;;5085527;28;20178;-62
2022/02/10 19:58:20;;;;;;;2.33;1.80;;;7.40;99.90;;;;;;5086005;28;20631;-62
2022/02/10 20:00:48;;;;;;;3.97;1.80;;;7.30;99.90;;;;;;5087039;28;20281;-63
2022/02/10 20:03:18;;;;;;;3.43;1.60;;;7.30;99.90;;;;;;5085216;28;20205;-64
2022/02/10 20:05:48;;;;;;;3.63;1.50;;;7.40;99.90;;;;;;5085866;28;20225;-64
2022/02/10 20:08:24;;;;;;;2.00;1.30;;;7.50;99.90;;;;;;5087223;28;20213;-63
2022/02/10 20:10:55;;;;;;;1.90;1.43;;;7.60;99.90;;;;;;5087271;28;20221;-66
2022/02/10 20:13:28;;;;;;;3.87;1.47;;;7.70;99.90;;;;;;5086367;28;20182;-65
2022/02/10 20:16:00;;;;;;;3.93;1.43;;;7.80;99.90;;;;;;5086978;28;20254;-63
2022/02/10 20:18:27;;;;;;;9.03;1.63;;;7.80;99.90;;;;;;5082178;28;20229;-63
2022/02/10 20:20:55;;;;;;;3.93;1.13;;;7.90;99.90;;;;;;5064652;28;20196;-64
2022/02/10 20:23:24;;;;;;;3.23;1.50;;;8.00;99.90;;;;;;5066013;28;20195;-64
2022/02/10 20:25:51;;;;;;;2.27;1.33;;;8.10;99.90;;;;;;5082729;28;20186;-62
2022/02/10 20:28:22;;;;;;;4.90;1.30;;;8.10;99.90;;;;;;5086621;28;20261;-63
2022/02/10 20:30:49;;;;;;;2.07;1.40;;;8.20;99.90;;;;;;5085360;28;20622;-63
2022/02/10 20:33:18;;;;;;;3.10;1.20;;;8.20;99.90;;;;;;5080903;28;20210;-65
2022/02/10 20:35:48;;;;;;;2.00;1.47;;;8.30;99.90;;;;;;5075277;28;20289;-62
2022/02/10 20:38:17;;;;;;;1.93;1.30;;;8.30;99.90;;;;;;5081270;28;20183;-62
2022/02/10 20:40:45;;;;;;;2.77;1.47;;;8.30;99.90;;;;;;5067835;28;20186;-63
2022/02/10 20:43:12;;;;;;;2.80;1.70;;;8.30;99.90;;;;;;5071610;28;20686;-65
2022/02/10 20:45:39;;;;;;;5.43;1.40;;;8.30;99.90;;;;;;5073146;28;20700;-65
2022/02/10 20:48:07;;;;;;;3.20;1.37;;;8.20;99.90;;;;;;5070807;28;20284;-63
2022/02/10 20:50:33;;;;;;;2.90;1.60;;;8.30;99.90;;;;;;5070550;28;20191;-64
2022/02/10 20:53:00;;;;;;;6.73;1.40;;;8.30;99.90;;;;;;5085508;28;20199;-63
2022/02/10 20:55:26;;;;;;;3.27;1.23;;;8.40;99.90;;;;;;5076883;28;20185;-65
2022/02/10 20:57:53;;;;;;;1.80;1.20;;;8.40;99.90;;;;;;5086466;28;20671;-62
2022/02/10 21:00:20;;;;;;;5.03;1.50;;;8.40;99.90;;;;;;5084888;28;20214;-62
2022/02/10 21:02:48;;;;;;;2.30;1.10;;;8.50;99.90;;;;;;5068837;28;20886;-64
2022/02/10 21:07:53;;;;;;;3.17;1.30;;;8.50;99.90;;;;;;5072432;28;20209;-63
2022/02/10 21:10:23;;;;;;;3.30;1.30;;;8.50;99.90;;;;;;5064030;28;20335;-62
2022/02/10 21:12:50;;;;;;;2.83;1.47;;;8.60;99.90;;;;;;5067344;28;20197;-63
2022/02/10 21:15:24;;;;;;;4.17;1.50;;;8.60;99.90;;;;;;5073855;28;21035;-66
2022/02/10 21:17:56;;;;;;;2.60;1.40;;;8.60;99.90;;;;;;5057663;28;20274;-64
2022/02/10 21:20:24;;;;;;;2.40;1.23;;;8.70;99.90;;;;;;5084715;28;20210;-64
2022/02/10 21:23:00;;;;;;;2.23;1.37;;;8.70;99.90;;;;;;5073478;28;20344;-64
2022/02/10 21:25:32;;;;;;;1.87;1.20;;;8.70;99.90;;;;;;5081104;28;20186;-63
2022/02/10 21:28:03;;;;;;;2.80;1.30;;;8.60;99.90;;;;;;5076736;28;20237;-64
2022/02/10 21:30:29;;;;;;;2.53;1.30;;;8.60;99.90;;;;;;5080645;28;20598;-65
2022/02/10 21:32:57;;;;;;;2.73;1.47;;;8.50;99.90;;;;;;5079803;28;20651;-63
2022/02/10 21:35:31;;;;;;;4.13;1.03;;;8.50;99.90;;;;;;5087154;28;20216;-63
2022/02/10 21:38:08;;;;;;;2.60;1.30;;;8.50;99.90;;;;;;5071895;28;20275;-62
2022/02/10 21:59:14;;;;;;;4.80;1.30;;;8.60;99.90;;;;;;5084343;28;20214;-64
2022/02/10 22:20:07;;;;;;;1.63;1.13;;;8.70;99.90;;;;;;5065849;28;20712;-65
2022/02/10 22:22:39;;;;;;;6.70;1.17;;;8.70;99.90;;;;;;5076862;28;20193;-65
2022/02/10 22:25:13;;;;;;;1.93;1.20;;;8.70;99.90;;;;;;5074339;28;20293;-65
2022/02/10 22:27:44;;;;;;;1.83;1.30;;;8.70;99.90;;;;;;5078070;28;20182;-64
2022/02/10 22:30:21;;;;;;;1.50;1.30;;;8.80;99.90;;;;;;5070444;28;20198;-64
2022/02/10 22:33:06;;;;;;;1.80;1.43;;;8.80;99.90;;;;;;5081975;28;20263;-64
2022/02/10 22:35:33;;;;;;;2.30;1.30;;;8.80;99.90;;;;;;5071010;28;20251;-64
2022/02/10 22:37:59;;;;;;;3.17;1.50;;;8.70;99.90;;;;;;5074993;28;20194;-64
2022/02/10 22:40:46;;;;;;;2.87;1.10;;;8.70;99.90;;;;;;5065997;28;20198;-63
2022/02/10 22:43:12;;;;;;;2.30;1.30;;;8.70;99.90;;;;;;5083196;28;20194;-64
2022/02/10 22:45:38;;;;;;;3.33;1.33;;;8.70;99.90;;;;;;5084123;28;20301;-62
2022/02/10 22:48:05;;;;;;;4.20;1.40;;;8.60;99.90;;;;;;5069798;28;20752;-62
2022/02/10 22:50:31;;;;;;;2.17;1.50;;;8.50;99.90;;;;;;5083328;28;20633;-64
2022/02/10 22:52:58;;;;;;;2.90;1.60;;;8.30;99.90;;;;;;5081063;28;20199;-62
2022/02/10 22:55:24;;;;;;;3.23;1.77;;;8.10;99.90;;;;;;5083324;28;20186;-62
2022/02/10 22:57:50;;;;;;;2.97;1.90;;;7.90;99.90;;;;;;5085306;28;20186;-65
2022/02/10 23:00:33;;;;;;;2.17;1.80;;;7.90;99.90;;;;;;5086310;28;20702;-64
2022/02/10 23:03:00;;;;;;;2.53;2.10;;;7.70;99.90;;;;;;5082670;28;20182;-63
2022/02/10 23:05:27;;;;;;;1.63;1.30;;;7.60;99.90;;;;;;5073888;28;20274;-64
2022/02/10 23:07:58;;;;;;;4.93;1.90;;;7.50;99.90;;;;;;5078209;28;20197;-65
2022/02/10 23:13:05;;;;;;;3.17;1.57;;;7.40;99.90;;;;;;5080002;28;20251;-63
2022/02/10 23:15:37;;;;;;;2.20;1.60;;;7.30;99.90;;;;;;5071590;28;20225;-63
2022/02/10 23:18:18;;;;;;;5.90;2.07;;;7.10;99.90;;;;;;5074019;28;20335;-65
2022/02/10 23:20:47;;;;;;;2.50;1.83;;;7.10;99.90;;;;;;5078538;28;20272;-64
2022/02/10 23:23:17;;;;;;;3.10;1.90;;;7.00;99.90;;;;;;5080069;28;20547;-65
2022/02/10 23:25:46;;;;;;;4.60;1.77;;;6.90;99.90;;;;;;5064260;28;20265;-62
2022/02/10 23:28:20;;;;;;;2.27;2.07;;;6.80;99.90;;;;;;5084242;28;21016;-63
2022/02/10 23:30:46;;;;;;;2.87;1.90;;;6.80;99.90;;;;;;5082583;28;20198;-65
2022/02/10 23:33:23;;;;;;;2.53;1.73;;;6.70;99.90;;;;;;5084458;28;20201;-65
2022/02/10 23:38:49;;;;;;;3.13;2.03;;;6.50;99.90;;;;;;5080415;28;20194;-65
2022/02/10 23:44:10;;;;;;;2.47;1.63;;;6.50;99.90;;;;;;5080297;28;20315;-63
2022/02/10 23:46:39;;;;;;;7.07;2.40;;;6.40;99.90;;;;;;5069236;28;20450;-62
2022/02/10 23:49:06;;;;;;;2.30;1.83;;;6.40;99.90;;;;;;5083098;28;20190;-63
2022/02/10 23:51:40;;;;;;;3.13;1.63;;;6.40;99.90;;;;;;5070279;28;20193;-63
2022/02/10 23:54:07;;;;;;;5.37;1.80;;;6.30;99.90;;;;;;5066985;28;20288;-63
2022/02/10 23:56:40;;;;;;;1.90;1.70;;;6.30;99.90;;;;;;5057666;28;20186;-63
